sensor_id;sensor_type;location;lat;lon;timestamp;P1;durP1;ratioP1;P2;durP2;ratioP2
20982;SDS011;10650;51.528;6.748;2022-10-16T00:01:27;7.95;;;5.07;;
20982;SDS011;10650;51.528;6.748;2022-10-16T00:03:57;11.25;;;5.95;;
20982;SDS011;10650;51.528;6.748;2022-10-16T00:06:30;14.15;;;7.28;;
20982;SDS011;10650;51.528;6.748;2022-10-16T00:08:58;13.45;;;7.68;;
20982;SDS011;10650;51.528;6.748;2022-10-16T00:11:28;13.52;;;7.30;;
20982;SDS011;10650;51.528;6.748;2022-10-16T00:13:59;11.75;;;6.97;;
20982;SDS011;10650;51.528;6.748;2022-10-16T00:16:29;14.13;;;7.28;;
20982;SDS011;10650;51.528;6.748;2022-10-16T00:18:57;14.15;;;7.53;;
20982;SDS011;10650;51.528;6.748;2022-10-16T00:21:27;14.48;;;8.13;;
20982;SDS011;10650;51.528;6.748;2022-10-16T00:23:56;12.60;;;6.97;;
20982;SDS011;10650;51.528;6.748;2022-10-16T00:26:26;9.85;;;6.93;;
20982;SDS011;10650;51.528;6.748;2022-10-16T00:28:55;14.52;;;7.90;;
20982;SDS011;10650;51.528;6.748;2022-10-16T00:31:24;13.10;;;7.80;;
20982;SDS011;10650;51.528;6.748;2022-10-16T00:33:52;13.38;;;8.13;;
20982;SDS011;10650;51.528;6.748;2022-10-16T00:36:21;12.50;;;7.22;;
20982;SDS011;10650;51.528;6.748;2022-10-16T00:38:52;9.95;;;6.07;;
20982;SDS011;10650;51.528;6.748;2022-10-16T00:41:22;10.70;;;5.80;;
20982;SDS011;10650;51.528;6.748;2022-10-16T00:43:51;7.90;;;5.10;;
20982;SDS011;10650;51.528;6.748;2022-10-16T00:46:21;8.88;;;4.80;;
20982;SDS011;10650;51.528;6.748;2022-10-16T00:48:53;11.77;;;6.25;;
20982;SDS011;10650;51.528;6.748;2022-10-16T00:51:25;13.13;;;7.47;;
20982;SDS011;10650;51.528;6.748;2022-10-16T00:54:01;16.48;;;7.88;;
20982;SDS011;10650;51.528;6.748;2022-10-16T00:56:31;13.20;;;7.38;;
20982;SDS011;10650;51.528;6.748;2022-10-16T00:58:59;9.32;;;5.57;;
20982;SDS011;10650;51.528;6.748;2022-10-16T01:01:30;9.95;;;6.10;;
20982;SDS011;10650;51.528;6.748;2022-10-16T01:03:58;11.10;;;7.30;;
20982;SDS011;10650;51.528;6.748;2022-10-16T01:06:28;13.35;;;8.10;;
20982;SDS011;10650;51.528;6.748;2022-10-16T01:09:09;13.35;;;8.88;;
20982;SDS011;10650;51.528;6.748;2022-10-16T01:11:44;14.63;;;8.85;;
20982;SDS011;10650;51.528;6.748;2022-10-16T01:14:20;14.25;;;9.20;;
20982;SDS011;10650;51.528;6.748;2022-10-16T01:16:55;13.88;;;7.97;;
20982;SDS011;10650;51.528;6.748;2022-10-16T01:19:44;14.27;;;8.15;;
20982;SDS011;10650;51.528;6.748;2022-10-16T01:22:32;13.65;;;6.95;;
20982;SDS011;10650;51.528;6.748;2022-10-16T01:25:11;10.43;;;6.63;;
20982;SDS011;10650;51.528;6.748;2022-10-16T01:27:45;10.73;;;6.30;;
20982;SDS011;10650;51.528;6.748;2022-10-16T01:30:16;12.67;;;5.40;;
20982;SDS011;10650;51.528;6.748;2022-10-16T01:32:49;11.05;;;5.60;;
20982;SDS011;10650;51.528;6.748;2022-10-16T01:35:21;11.60;;;6.05;;
20982;SDS011;10650;51.528;6.748;2022-10-16T01:37:53;10.45;;;5.30;;
20982;SDS011;10650;51.528;6.748;2022-10-16T01:40:26;11.32;;;5.80;;
20982;SDS011;10650;51.528;6.748;2022-10-16T01:42:58;14.00;;;6.80;;
20982;SDS011;10650;51.528;6.748;2022-10-16T01:45:30;11.80;;;6.68;;
20982;SDS011;10650;51.528;6.748;2022-10-16T01:48:00;17.00;;;7.78;;
20982;SDS011;10650;51.528;6.748;2022-10-16T01:50:30;13.75;;;7.47;;
20982;SDS011;10650;51.528;6.748;2022-10-16T01:53:00;12.52;;;7.45;;
20982;SDS011;10650;51.528;6.748;2022-10-16T01:55:31;13.00;;;7.07;;
20982;SDS011;10650;51.528;6.748;2022-10-16T02:00:34;18.08;;;7.57;;
20982;SDS011;10650;51.528;6.748;2022-10-16T02:03:04;16.17;;;8.43;;
20982;SDS011;10650;51.528;6.748;2022-10-16T02:05:34;14.40;;;6.25;;
20982;SDS011;10650;51.528;6.748;2022-10-16T02:08:07;13.05;;;5.75;;
20982;SDS011;10650;51.528;6.748;2022-10-16T02:10:35;11.68;;;5.60;;
20982;SDS011;10650;51.528;6.748;2022-10-16T02:13:06;12.98;;;5.70;;
20982;SDS011;10650;51.528;6.748;2022-10-16T02:15:39;8.35;;;5.05;;
20982;SDS011;10650;51.528;6.748;2022-10-16T02:18:07;10.50;;;5.00;;
20982;SDS011;10650;51.528;6.748;2022-10-16T02:20:38;14.50;;;5.20;;
20982;SDS011;10650;51.528;6.748;2022-10-16T02:23:19;14.18;;;5.90;;
20982;SDS011;10650;51.528;6.748;2022-10-16T02:25:51;12.05;;;6.28;;
20982;SDS011;10650;51.528;6.748;2022-10-16T02:28:23;9.73;;;5.97;;
20982;SDS011;10650;51.528;6.748;2022-10-16T02:31:01;12.00;;;5.60;;
20982;SDS011;10650;51.528;6.748;2022-10-16T02:33:31;14.27;;;5.57;;
20982;SDS011;10650;51.528;6.748;2022-10-16T02:36:02;11.52;;;5.00;;
20982;SDS011;10650;51.528;6.748;2022-10-16T02:38:30;11.05;;;5.07;;
20982;SDS011;10650;51.528;6.748;2022-10-16T02:40:58;9.10;;;4.55;;
20982;SDS011;10650;51.528;6.748;2022-10-16T02:43:27;10.85;;;5.28;;
20982;SDS011;10650;51.528;6.748;2022-10-16T02:45:55;11.65;;;5.78;;
20982;SDS011;10650;51.528;6.748;2022-10-16T02:48:23;12.10;;;5.80;;
20982;SDS011;10650;51.528;6.748;2022-10-16T02:50:51;10.07;;;4.63;;
20982;SDS011;10650;51.528;6.748;2022-10-16T02:53:18;11.18;;;4.18;;
20982;SDS011;10650;51.528;6.748;2022-10-16T02:55:46;8.65;;;4.38;;
20982;SDS011;10650;51.528;6.748;2022-10-16T02:58:14;11.27;;;4.30;;
20982;SDS011;10650;51.528;6.748;2022-10-16T03:00:43;11.85;;;4.63;;
20982;SDS011;10650;51.528;6.748;2022-10-16T03:03:11;12.40;;;5.10;;
20982;SDS011;10650;51.528;6.748;2022-10-16T03:05:39;8.93;;;4.43;;
20982;SDS011;10650;51.528;6.748;2022-10-16T03:08:06;13.00;;;5.10;;
20982;SDS011;10650;51.528;6.748;2022-10-16T03:10:34;6.68;;;3.70;;
20982;SDS011;10650;51.528;6.748;2022-10-16T03:13:02;6.43;;;3.50;;
20982;SDS011;10650;51.528;6.748;2022-10-16T03:15:30;10.57;;;3.60;;
20982;SDS011;10650;51.528;6.748;2022-10-16T03:17:59;9.82;;;3.35;;
20982;SDS011;10650;51.528;6.748;2022-10-16T03:20:27;4.97;;;3.20;;
20982;SDS011;10650;51.528;6.748;2022-10-16T03:22:54;8.68;;;3.30;;
20982;SDS011;10650;51.528;6.748;2022-10-16T03:25:22;9.32;;;3.50;;
20982;SDS011;10650;51.528;6.748;2022-10-16T03:27:50;6.65;;;3.40;;
20982;SDS011;10650;51.528;6.748;2022-10-16T03:30:18;8.50;;;3.20;;
20982;SDS011;10650;51.528;6.748;2022-10-16T03:32:46;5.30;;;2.80;;
20982;SDS011;10650;51.528;6.748;2022-10-16T03:35:15;11.10;;;4.22;;
20982;SDS011;10650;51.528;6.748;2022-10-16T03:37:43;14.55;;;4.20;;
20982;SDS011;10650;51.528;6.748;2022-10-16T03:40:11;14.70;;;4.57;;
20982;SDS011;10650;51.528;6.748;2022-10-16T03:42:39;10.23;;;3.55;;
20982;SDS011;10650;51.528;6.748;2022-10-16T03:45:07;9.48;;;3.60;;
20982;SDS011;10650;51.528;6.748;2022-10-16T03:47:35;8.38;;;3.88;;
20982;SDS011;10650;51.528;6.748;2022-10-16T03:50:03;9.05;;;3.53;;
20982;SDS011;10650;51.528;6.748;2022-10-16T03:52:33;10.45;;;3.85;;
20982;SDS011;10650;51.528;6.748;2022-10-16T03:55:01;8.48;;;2.90;;
20982;SDS011;10650;51.528;6.748;2022-10-16T03:57:28;6.55;;;3.13;;
20982;SDS011;10650;51.528;6.748;2022-10-16T03:59:56;6.32;;;3.17;;
20982;SDS011;10650;51.528;6.748;2022-10-16T04:02:24;7.95;;;3.20;;
20982;SDS011;10650;51.528;6.748;2022-10-16T04:04:52;4.80;;;3.10;;
20982;SDS011;10650;51.528;6.748;2022-10-16T04:07:19;6.07;;;3.08;;
20982;SDS011;10650;51.528;6.748;2022-10-16T04:09:49;6.63;;;3.15;;
20982;SDS011;10650;51.528;6.748;2022-10-16T04:12:18;6.20;;;3.08;;
20982;SDS011;10650;51.528;6.748;2022-10-16T04:14:45;5.25;;;3.20;;
20982;SDS011;10650;51.528;6.748;2022-10-16T04:17:13;7.22;;;3.40;;
20982;SDS011;10650;51.528;6.748;2022-10-16T04:19:41;6.85;;;3.42;;
20982;SDS011;10650;51.528;6.748;2022-10-16T04:22:09;7.35;;;3.30;;
20982;SDS011;10650;51.528;6.748;2022-10-16T04:24:36;6.15;;;2.97;;
20982;SDS011;10650;51.528;6.748;2022-10-16T04:27:06;7.10;;;3.00;;
20982;SDS011;10650;51.528;6.748;2022-10-16T04:29:33;5.15;;;2.85;;
20982;SDS011;10650;51.528;6.748;2022-10-16T04:32:01;7.65;;;3.00;;
20982;SDS011;10650;51.528;6.748;2022-10-16T04:34:29;8.73;;;4.13;;
20982;SDS011;10650;51.528;6.748;2022-10-16T04:36:56;8.30;;;4.25;;
20982;SDS011;10650;51.528;6.748;2022-10-16T04:39:24;9.75;;;4.70;;
20982;SDS011;10650;51.528;6.748;2022-10-16T04:41:52;7.47;;;4.25;;
20982;SDS011;10650;51.528;6.748;2022-10-16T04:44:21;9.20;;;4.07;;
20982;SDS011;10650;51.528;6.748;2022-10-16T04:46:50;10.35;;;4.07;;
20982;SDS011;10650;51.528;6.748;2022-10-16T04:49:23;10.93;;;4.38;;
20982;SDS011;10650;51.528;6.748;2022-10-16T04:51:51;14.02;;;4.90;;
20982;SDS011;10650;51.528;6.748;2022-10-16T04:54:19;11.32;;;4.95;;
20982;SDS011;10650;51.528;6.748;2022-10-16T04:56:46;12.40;;;4.05;;
20982;SDS011;10650;51.528;6.748;2022-10-16T04:59:16;8.88;;;4.13;;
20982;SDS011;10650;51.528;6.748;2022-10-16T05:01:46;8.25;;;3.75;;
20982;SDS011;10650;51.528;6.748;2022-10-16T05:04:15;10.05;;;3.80;;
20982;SDS011;10650;51.528;6.748;2022-10-16T05:06:43;11.27;;;4.60;;
20982;SDS011;10650;51.528;6.748;2022-10-16T05:09:11;12.18;;;4.90;;
20982;SDS011;10650;51.528;6.748;2022-10-16T05:11:38;14.45;;;4.72;;
20982;SDS011;10650;51.528;6.748;2022-10-16T05:14:06;9.60;;;4.70;;
20982;SDS011;10650;51.528;6.748;2022-10-16T05:16:34;11.45;;;5.03;;
20982;SDS011;10650;51.528;6.748;2022-10-16T05:19:03;12.23;;;4.55;;
20982;SDS011;10650;51.528;6.748;2022-10-16T05:21:51;8.93;;;4.32;;
20982;SDS011;10650;51.528;6.748;2022-10-16T05:24:18;7.88;;;4.93;;
20982;SDS011;10650;51.528;6.748;2022-10-16T05:26:46;7.57;;;4.85;;
20982;SDS011;10650;51.528;6.748;2022-10-16T05:29:14;8.48;;;5.68;;
20982;SDS011;10650;51.528;6.748;2022-10-16T05:31:41;9.13;;;5.18;;
20982;SDS011;10650;51.528;6.748;2022-10-16T05:34:10;8.38;;;4.00;;
20982;SDS011;10650;51.528;6.748;2022-10-16T05:36:38;11.35;;;4.65;;
20982;SDS011;10650;51.528;6.748;2022-10-16T05:39:06;9.60;;;4.80;;
20982;SDS011;10650;51.528;6.748;2022-10-16T05:41:34;10.05;;;4.28;;
20982;SDS011;10650;51.528;6.748;2022-10-16T05:44:03;8.68;;;4.25;;
20982;SDS011;10650;51.528;6.748;2022-10-16T05:46:32;6.88;;;4.28;;
20982;SDS011;10650;51.528;6.748;2022-10-16T05:49:00;7.32;;;3.78;;
20982;SDS011;10650;51.528;6.748;2022-10-16T05:51:29;9.73;;;4.25;;
20982;SDS011;10650;51.528;6.748;2022-10-16T05:53:57;8.93;;;4.32;;
20982;SDS011;10650;51.528;6.748;2022-10-16T05:56:25;10.57;;;4.65;;
20982;SDS011;10650;51.528;6.748;2022-10-16T05:58:53;6.05;;;3.50;;
20982;SDS011;10650;51.528;6.748;2022-10-16T06:01:20;8.20;;;4.28;;
20982;SDS011;10650;51.528;6.748;2022-10-16T06:03:50;13.07;;;6.13;;
20982;SDS011;10650;51.528;6.748;2022-10-16T06:06:19;14.00;;;6.43;;
20982;SDS011;10650;51.528;6.748;2022-10-16T06:08:51;11.80;;;6.10;;
20982;SDS011;10650;51.528;6.748;2022-10-16T06:11:20;11.70;;;7.00;;
20982;SDS011;10650;51.528;6.748;2022-10-16T06:13:49;14.98;;;8.50;;
20982;SDS011;10650;51.528;6.748;2022-10-16T06:16:18;15.63;;;7.97;;
20982;SDS011;10650;51.528;6.748;2022-10-16T06:18:46;14.77;;;7.55;;
20982;SDS011;10650;51.528;6.748;2022-10-16T06:21:16;16.50;;;7.07;;
20982;SDS011;10650;51.528;6.748;2022-10-16T06:23:49;15.00;;;7.90;;
20982;SDS011;10650;51.528;6.748;2022-10-16T06:26:18;13.88;;;8.30;;
20982;SDS011;10650;51.528;6.748;2022-10-16T06:28:48;15.87;;;8.40;;
20982;SDS011;10650;51.528;6.748;2022-10-16T06:31:17;14.15;;;8.38;;
20982;SDS011;10650;51.528;6.748;2022-10-16T06:33:45;17.75;;;8.23;;
20982;SDS011;10650;51.528;6.748;2022-10-16T06:36:13;13.05;;;7.63;;
20982;SDS011;10650;51.528;6.748;2022-10-16T06:38:43;11.20;;;6.65;;
20982;SDS011;10650;51.528;6.748;2022-10-16T06:41:13;10.80;;;6.68;;
20982;SDS011;10650;51.528;6.748;2022-10-16T06:43:43;12.00;;;6.63;;
20982;SDS011;10650;51.528;6.748;2022-10-16T06:46:12;12.18;;;6.53;;
20982;SDS011;10650;51.528;6.748;2022-10-16T06:48:41;8.95;;;6.38;;
20982;SDS011;10650;51.528;6.748;2022-10-16T06:51:10;10.18;;;6.00;;
20982;SDS011;10650;51.528;6.748;2022-10-16T06:53:40;7.78;;;5.28;;
20982;SDS011;10650;51.528;6.748;2022-10-16T06:56:29;8.10;;;4.82;;
20982;SDS011;10650;51.528;6.748;2022-10-16T06:58:58;7.82;;;5.43;;
20982;SDS011;10650;51.528;6.748;2022-10-16T07:01:26;9.95;;;6.18;;
20982;SDS011;10650;51.528;6.748;2022-10-16T07:03:54;8.60;;;5.63;;
20982;SDS011;10650;51.528;6.748;2022-10-16T07:06:23;13.30;;;6.47;;
20982;SDS011;10650;51.528;6.748;2022-10-16T07:08:52;10.15;;;6.75;;
20982;SDS011;10650;51.528;6.748;2022-10-16T07:11:21;7.65;;;5.60;;
20982;SDS011;10650;51.528;6.748;2022-10-16T07:13:51;8.50;;;5.40;;
20982;SDS011;10650;51.528;6.748;2022-10-16T07:16:22;9.65;;;6.05;;
20982;SDS011;10650;51.528;6.748;2022-10-16T07:18:51;8.75;;;5.32;;
20982;SDS011;10650;51.528;6.748;2022-10-16T07:21:25;7.97;;;5.00;;
20982;SDS011;10650;51.528;6.748;2022-10-16T07:23:55;10.75;;;6.15;;
20982;SDS011;10650;51.528;6.748;2022-10-16T07:26:24;13.25;;;6.70;;
20982;SDS011;10650;51.528;6.748;2022-10-16T07:28:55;12.55;;;7.22;;
20982;SDS011;10650;51.528;6.748;2022-10-16T07:31:23;10.85;;;6.38;;
20982;SDS011;10650;51.528;6.748;2022-10-16T07:33:51;12.18;;;6.50;;
20982;SDS011;10650;51.528;6.748;2022-10-16T07:36:20;10.70;;;5.95;;
20982;SDS011;10650;51.528;6.748;2022-10-16T07:38:48;8.98;;;5.00;;
20982;SDS011;10650;51.528;6.748;2022-10-16T07:41:20;8.07;;;5.43;;
20982;SDS011;10650;51.528;6.748;2022-10-16T07:43:48;9.70;;;5.20;;
20982;SDS011;10650;51.528;6.748;2022-10-16T07:46:18;8.88;;;4.70;;
20982;SDS011;10650;51.528;6.748;2022-10-16T07:48:47;7.63;;;4.78;;
20982;SDS011;10650;51.528;6.748;2022-10-16T07:51:15;7.03;;;4.43;;
20982;SDS011;10650;51.528;6.748;2022-10-16T07:53:44;6.93;;;4.22;;
20982;SDS011;10650;51.528;6.748;2022-10-16T07:56:13;6.80;;;3.30;;
20982;SDS011;10650;51.528;6.748;2022-10-16T07:58:41;7.40;;;4.15;;
20982;SDS011;10650;51.528;6.748;2022-10-16T08:01:10;7.20;;;3.70;;
20982;SDS011;10650;51.528;6.748;2022-10-16T08:03:42;4.18;;;3.10;;
20982;SDS011;10650;51.528;6.748;2022-10-16T08:06:10;6.65;;;3.40;;
20982;SDS011;10650;51.528;6.748;2022-10-16T08:08:38;5.13;;;2.90;;
20982;SDS011;10650;51.528;6.748;2022-10-16T08:11:05;7.45;;;3.10;;
20982;SDS011;10650;51.528;6.748;2022-10-16T08:13:34;7.45;;;3.58;;
20982;SDS011;10650;51.528;6.748;2022-10-16T08:16:02;4.57;;;3.53;;
20982;SDS011;10650;51.528;6.748;2022-10-16T08:18:34;4.78;;;2.90;;
20982;SDS011;10650;51.528;6.748;2022-10-16T08:21:04;6.43;;;3.25;;
20982;SDS011;10650;51.528;6.748;2022-10-16T08:23:36;7.45;;;3.80;;
20982;SDS011;10650;51.528;6.748;2022-10-16T08:26:05;4.90;;;2.58;;
20982;SDS011;10650;51.528;6.748;2022-10-16T08:28:34;3.90;;;2.30;;
20982;SDS011;10650;51.528;6.748;2022-10-16T08:31:06;3.75;;;2.28;;
20982;SDS011;10650;51.528;6.748;2022-10-16T08:33:35;4.50;;;2.30;;
20982;SDS011;10650;51.528;6.748;2022-10-16T08:36:05;4.50;;;2.38;;
20982;SDS011;10650;51.528;6.748;2022-10-16T08:38:33;3.40;;;2.22;;
20982;SDS011;10650;51.528;6.748;2022-10-16T08:41:15;2.97;;;2.20;;
20982;SDS011;10650;51.528;6.748;2022-10-16T08:44:18;4.97;;;3.10;;
20982;SDS011;10650;51.528;6.748;2022-10-16T08:46:59;3.15;;;2.10;;
20982;SDS011;10650;51.528;6.748;2022-10-16T08:49:35;2.53;;;2.13;;
20982;SDS011;10650;51.528;6.748;2022-10-16T08:52:11;2.63;;;1.95;;
20982;SDS011;10650;51.528;6.748;2022-10-16T08:54:41;4.80;;;1.92;;
20982;SDS011;10650;51.528;6.748;2022-10-16T08:57:13;5.38;;;2.08;;
20982;SDS011;10650;51.528;6.748;2022-10-16T08:59:48;2.20;;;2.00;;
20982;SDS011;10650;51.528;6.748;2022-10-16T09:02:20;4.13;;;2.00;;
20982;SDS011;10650;51.528;6.748;2022-10-16T09:04:54;3.05;;;1.88;;
20982;SDS011;10650;51.528;6.748;2022-10-16T09:07:32;3.22;;;1.90;;
20982;SDS011;10650;51.528;6.748;2022-10-16T09:10:11;2.55;;;2.15;;
20982;SDS011;10650;51.528;6.748;2022-10-16T09:12:48;2.97;;;2.05;;
20982;SDS011;10650;51.528;6.748;2022-10-16T09:15:24;3.85;;;1.90;;
20982;SDS011;10650;51.528;6.748;2022-10-16T09:18:03;2.90;;;1.85;;
20982;SDS011;10650;51.528;6.748;2022-10-16T09:20:40;5.13;;;2.00;;
20982;SDS011;10650;51.528;6.748;2022-10-16T09:23:18;3.65;;;1.80;;
20982;SDS011;10650;51.528;6.748;2022-10-16T09:25:49;6.00;;;2.00;;
20982;SDS011;10650;51.528;6.748;2022-10-16T09:28:17;4.00;;;1.77;;
20982;SDS011;10650;51.528;6.748;2022-10-16T09:30:46;3.38;;;1.70;;
20982;SDS011;10650;51.528;6.748;2022-10-16T09:33:16;4.05;;;2.03;;
20982;SDS011;10650;51.528;6.748;2022-10-16T09:35:45;1.95;;;1.50;;
20982;SDS011;10650;51.528;6.748;2022-10-16T09:38:24;5.30;;;1.88;;
20982;SDS011;10650;51.528;6.748;2022-10-16T09:40:54;3.20;;;1.83;;
20982;SDS011;10650;51.528;6.748;2022-10-16T09:43:28;4.40;;;1.67;;
20982;SDS011;10650;51.528;6.748;2022-10-16T09:46:02;2.47;;;1.42;;
20982;SDS011;10650;51.528;6.748;2022-10-16T09:48:34;3.60;;;1.70;;
20982;SDS011;10650;51.528;6.748;2022-10-16T09:51:05;3.97;;;1.70;;
20982;SDS011;10650;51.528;6.748;2022-10-16T09:53:45;2.92;;;1.80;;
20982;SDS011;10650;51.528;6.748;2022-10-16T09:56:20;4.32;;;1.77;;
20982;SDS011;10650;51.528;6.748;2022-10-16T09:58:50;2.80;;;1.60;;
20982;SDS011;10650;51.528;6.748;2022-10-16T10:01:18;1.88;;;1.30;;
20982;SDS011;10650;51.528;6.748;2022-10-16T10:03:47;2.88;;;1.65;;
20982;SDS011;10650;51.528;6.748;2022-10-16T10:06:17;3.00;;;1.83;;
20982;SDS011;10650;51.528;6.748;2022-10-16T10:08:57;3.33;;;1.60;;
20982;SDS011;10650;51.528;6.748;2022-10-16T10:11:40;5.25;;;1.48;;
20982;SDS011;10650;51.528;6.748;2022-10-16T10:14:17;3.38;;;1.60;;
20982;SDS011;10650;51.528;6.748;2022-10-16T10:16:47;4.38;;;1.80;;
20982;SDS011;10650;51.528;6.748;2022-10-16T10:19:16;4.78;;;2.60;;
20982;SDS011;10650;51.528;6.748;2022-10-16T10:21:45;3.97;;;1.73;;
20982;SDS011;10650;51.528;6.748;2022-10-16T10:24:15;2.35;;;1.20;;
20982;SDS011;10650;51.528;6.748;2022-10-16T10:26:47;3.88;;;1.65;;
20982;SDS011;10650;51.528;6.748;2022-10-16T10:29:23;5.45;;;1.45;;
20982;SDS011;10650;51.528;6.748;2022-10-16T10:32:00;3.58;;;1.50;;
20982;SDS011;10650;51.528;6.748;2022-10-16T10:37:49;7.05;;;4.10;;
20982;SDS011;10650;51.528;6.748;2022-10-16T10:40:29;3.88;;;1.70;;
20982;SDS011;10650;51.528;6.748;2022-10-16T10:43:09;6.03;;;3.90;;
20982;SDS011;10650;51.528;6.748;2022-10-16T10:45:46;2.88;;;2.17;;
20982;SDS011;10650;51.528;6.748;2022-10-16T10:48:24;3.75;;;1.90;;
20982;SDS011;10650;51.528;6.748;2022-10-16T10:51:08;2.60;;;1.40;;
20982;SDS011;10650;51.528;6.748;2022-10-16T10:53:42;2.15;;;1.23;;
20982;SDS011;10650;51.528;6.748;2022-10-16T10:56:22;2.00;;;1.13;;
20982;SDS011;10650;51.528;6.748;2022-10-16T10:59:08;3.17;;;1.40;;
20982;SDS011;10650;51.528;6.748;2022-10-16T11:02:10;1.90;;;1.40;;
20982;SDS011;10650;51.528;6.748;2022-10-16T11:04:55;4.60;;;1.67;;
20982;SDS011;10650;51.528;6.748;2022-10-16T11:07:47;3.22;;;2.13;;
20982;SDS011;10650;51.528;6.748;2022-10-16T11:10:20;3.40;;;1.38;;
20982;SDS011;10650;51.528;6.748;2022-10-16T11:12:54;4.65;;;1.50;;
20982;SDS011;10650;51.528;6.748;2022-10-16T11:15:28;4.47;;;1.60;;
20982;SDS011;10650;51.528;6.748;2022-10-16T11:18:00;2.80;;;1.30;;
20982;SDS011;10650;51.528;6.748;2022-10-16T11:20:34;3.47;;;1.48;;
20982;SDS011;10650;51.528;6.748;2022-10-16T11:23:05;3.60;;;1.45;;
20982;SDS011;10650;51.528;6.748;2022-10-16T11:25:39;1.48;;;1.13;;
20982;SDS011;10650;51.528;6.748;2022-10-16T11:28:10;4.05;;;1.90;;
20982;SDS011;10650;51.528;6.748;2022-10-16T11:30:43;4.82;;;2.70;;
20982;SDS011;10650;51.528;6.748;2022-10-16T11:33:20;3.60;;;1.83;;
20982;SDS011;10650;51.528;6.748;2022-10-16T11:36:00;4.93;;;3.08;;
20982;SDS011;10650;51.528;6.748;2022-10-16T11:38:34;5.53;;;2.22;;
20982;SDS011;10650;51.528;6.748;2022-10-16T11:41:15;2.72;;;1.45;;
20982;SDS011;10650;51.528;6.748;2022-10-16T11:44:06;2.40;;;1.50;;
20982;SDS011;10650;51.528;6.748;2022-10-16T11:46:45;5.07;;;1.73;;
20982;SDS011;10650;51.528;6.748;2022-10-16T11:49:34;3.85;;;1.40;;
20982;SDS011;10650;51.528;6.748;2022-10-16T11:52:06;4.00;;;1.40;;
20982;SDS011;10650;51.528;6.748;2022-10-16T11:54:45;3.33;;;1.45;;
20982;SDS011;10650;51.528;6.748;2022-10-16T11:57:17;3.42;;;1.38;;
20982;SDS011;10650;51.528;6.748;2022-10-16T11:59:52;1.80;;;1.20;;
20982;SDS011;10650;51.528;6.748;2022-10-16T12:02:33;4.20;;;1.45;;
20982;SDS011;10650;51.528;6.748;2022-10-16T12:05:14;4.78;;;1.60;;
20982;SDS011;10650;51.528;6.748;2022-10-16T12:07:53;4.50;;;1.50;;
20982;SDS011;10650;51.528;6.748;2022-10-16T12:10:29;2.75;;;1.20;;
20982;SDS011;10650;51.528;6.748;2022-10-16T12:16:05;4.25;;;1.85;;
20982;SDS011;10650;51.528;6.748;2022-10-16T12:18:48;4.00;;;1.50;;
20982;SDS011;10650;51.528;6.748;2022-10-16T12:21:17;4.72;;;1.70;;
20982;SDS011;10650;51.528;6.748;2022-10-16T12:23:46;2.70;;;1.20;;
20982;SDS011;10650;51.528;6.748;2022-10-16T12:26:23;4.45;;;1.63;;
20982;SDS011;10650;51.528;6.748;2022-10-16T12:28:52;5.72;;;2.50;;
20982;SDS011;10650;51.528;6.748;2022-10-16T12:31:22;2.85;;;1.40;;
20982;SDS011;10650;51.528;6.748;2022-10-16T12:33:55;4.80;;;1.38;;
20982;SDS011;10650;51.528;6.748;2022-10-16T12:36:27;4.70;;;1.40;;
20982;SDS011;10650;51.528;6.748;2022-10-16T12:38:56;2.60;;;1.40;;
20982;SDS011;10650;51.528;6.748;2022-10-16T12:41:26;2.90;;;1.60;;
20982;SDS011;10650;51.528;6.748;2022-10-16T12:43:55;3.85;;;1.60;;
20982;SDS011;10650;51.528;6.748;2022-10-16T12:46:34;2.85;;;1.30;;
20982;SDS011;10650;51.528;6.748;2022-10-16T12:49:20;2.13;;;1.50;;
20982;SDS011;10650;51.528;6.748;2022-10-16T12:51:56;3.05;;;1.48;;
20982;SDS011;10650;51.528;6.748;2022-10-16T12:54:25;5.43;;;1.38;;
20982;SDS011;10650;51.528;6.748;2022-10-16T12:59:34;2.10;;;1.55;;
20982;SDS011;10650;51.528;6.748;2022-10-16T13:02:17;3.38;;;1.40;;
20982;SDS011;10650;51.528;6.748;2022-10-16T13:05:08;3.83;;;1.58;;
20982;SDS011;10650;51.528;6.748;2022-10-16T13:07:52;2.38;;;1.30;;
20982;SDS011;10650;51.528;6.748;2022-10-16T13:10:30;3.42;;;1.40;;
20982;SDS011;10650;51.528;6.748;2022-10-16T13:13:12;4.22;;;1.30;;
20982;SDS011;10650;51.528;6.748;2022-10-16T13:15:53;2.47;;;1.42;;
20982;SDS011;10650;51.528;6.748;2022-10-16T13:18:32;2.47;;;1.27;;
20982;SDS011;10650;51.528;6.748;2022-10-16T13:21:14;2.47;;;1.48;;
20982;SDS011;10650;51.528;6.748;2022-10-16T13:23:53;3.78;;;1.30;;
20982;SDS011;10650;51.528;6.748;2022-10-16T13:26:31;3.35;;;1.35;;
20982;SDS011;10650;51.528;6.748;2022-10-16T13:29:06;3.85;;;1.55;;
20982;SDS011;10650;51.528;6.748;2022-10-16T13:31:36;4.00;;;1.40;;
20982;SDS011;10650;51.528;6.748;2022-10-16T13:34:10;3.47;;;1.15;;
20982;SDS011;10650;51.528;6.748;2022-10-16T13:36:45;4.43;;;1.95;;
20982;SDS011;10650;51.528;6.748;2022-10-16T13:39:20;1.63;;;1.20;;
20982;SDS011;10650;51.528;6.748;2022-10-16T13:42:03;5.15;;;1.80;;
20982;SDS011;10650;51.528;6.748;2022-10-16T13:44:36;4.72;;;1.60;;
20982;SDS011;10650;51.528;6.748;2022-10-16T13:47:14;3.55;;;1.67;;
20982;SDS011;10650;51.528;6.748;2022-10-16T13:49:45;4.97;;;1.70;;
20982;SDS011;10650;51.528;6.748;2022-10-16T13:52:17;4.70;;;1.92;;
20982;SDS011;10650;51.528;6.748;2022-10-16T13:54:47;10.55;;;6.80;;
20982;SDS011;10650;51.528;6.748;2022-10-16T13:57:15;9.80;;;6.05;;
20982;SDS011;10650;51.528;6.748;2022-10-16T13:59:53;7.35;;;4.32;;
20982;SDS011;10650;51.528;6.748;2022-10-16T14:02:22;5.20;;;2.85;;
20982;SDS011;10650;51.528;6.748;2022-10-16T14:04:55;3.38;;;1.88;;
20982;SDS011;10650;51.528;6.748;2022-10-16T14:07:25;3.35;;;1.50;;
20982;SDS011;10650;51.528;6.748;2022-10-16T14:09:55;4.25;;;1.58;;
20982;SDS011;10650;51.528;6.748;2022-10-16T14:12:28;6.28;;;1.40;;
20982;SDS011;10650;51.528;6.748;2022-10-16T14:14:57;4.97;;;1.40;;
20982;SDS011;10650;51.528;6.748;2022-10-16T14:17:27;2.45;;;1.27;;
20982;SDS011;10650;51.528;6.748;2022-10-16T14:19:58;2.30;;;1.10;;
20982;SDS011;10650;51.528;6.748;2022-10-16T14:22:30;4.90;;;3.20;;
20982;SDS011;10650;51.528;6.748;2022-10-16T14:24:59;6.85;;;3.95;;
20982;SDS011;10650;51.528;6.748;2022-10-16T14:27:29;11.55;;;7.03;;
20982;SDS011;10650;51.528;6.748;2022-10-16T14:30:08;13.33;;;6.93;;
20982;SDS011;10650;51.528;6.748;2022-10-16T14:32:52;10.95;;;5.72;;
20982;SDS011;10650;51.528;6.748;2022-10-16T14:35:26;7.72;;;3.45;;
20982;SDS011;10650;51.528;6.748;2022-10-16T14:37:57;4.80;;;2.63;;
20982;SDS011;10650;51.528;6.748;2022-10-16T14:40:27;5.03;;;2.40;;
20982;SDS011;10650;51.528;6.748;2022-10-16T14:42:58;3.85;;;2.05;;
20982;SDS011;10650;51.528;6.748;2022-10-16T14:45:28;4.85;;;2.30;;
20982;SDS011;10650;51.528;6.748;2022-10-16T14:47:58;4.70;;;2.75;;
20982;SDS011;10650;51.528;6.748;2022-10-16T14:50:28;14.82;;;8.07;;
20982;SDS011;10650;51.528;6.748;2022-10-16T14:52:57;11.82;;;7.45;;
20982;SDS011;10650;51.528;6.748;2022-10-16T14:55:25;11.35;;;6.57;;
20982;SDS011;10650;51.528;6.748;2022-10-16T14:57:53;7.70;;;5.07;;
20982;SDS011;10650;51.528;6.748;2022-10-16T15:00:26;8.25;;;5.43;;
20982;SDS011;10650;51.528;6.748;2022-10-16T15:02:54;7.18;;;4.28;;
20982;SDS011;10650;51.528;6.748;2022-10-16T15:05:22;10.18;;;4.00;;
20982;SDS011;10650;51.528;6.748;2022-10-16T15:07:53;7.93;;;4.00;;
20982;SDS011;10650;51.528;6.748;2022-10-16T15:10:22;6.57;;;3.90;;
20982;SDS011;10650;51.528;6.748;2022-10-16T15:12:51;8.23;;;3.80;;
20982;SDS011;10650;51.528;6.748;2022-10-16T15:15:27;7.97;;;3.50;;
20982;SDS011;10650;51.528;6.748;2022-10-16T15:18:00;7.88;;;4.40;;
20982;SDS011;10650;51.528;6.748;2022-10-16T15:20:29;7.82;;;4.50;;
20982;SDS011;10650;51.528;6.748;2022-10-16T15:23:01;7.03;;;3.53;;